sensor_id;sensor_type;location;lat;lon;timestamp;pressure;altitude;pressure_sealevel;temperature;humidity
55604;BME280;41468;48.838;9.330;2024-03-23T00:55:49;97589.03;;;10.82;81.50
55604;BME280;41468;48.838;9.330;2024-03-23T00:58:15;97592.53;;;10.79;82.58
55604;BME280;41468;48.838;9.330;2024-03-23T01:00:41;97584.19;;;10.36;88.44
55604;BME280;41468;48.838;9.330;2024-03-23T01:03:06;97577.19;;;10.35;88.40
55604;BME280;41468;48.838;9.330;2024-03-23T01:05:32;97576.72;;;10.26;90.14
55604;BME280;41468;48.838;9.330;2024-03-23T01:07:57;97579.88;;;10.28;89.80
55604;BME280;41468;48.838;9.330;2024-03-23T01:10:23;97568.94;;;10.24;90.59
55604;BME280;41468;48.838;9.330;2024-03-23T01:12:48;97574.47;;;10.35;88.48
55604;BME280;41468;48.838;9.330;2024-03-23T01:15:14;97564.41;;;10.57;85.47
55604;BME280;41468;48.838;9.330;2024-03-23T01:17:39;97560.94;;;10.67;85.09
55604;BME280;41468;48.838;9.330;2024-03-23T01:20:05;97566.38;;;10.71;85.63
55604;BME280;41468;48.838;9.330;2024-03-23T01:22:31;97561.31;;;10.80;83.60
55604;BME280;41468;48.838;9.330;2024-03-23T01:24:57;97561.31;;;10.80;87.42
55604;BME280;41468;48.838;9.330;2024-03-23T01:27:23;97556.66;;;10.70;89.93
55604;BME280;41468;48.838;9.330;2024-03-23T01:40:24;97525.84;;;11.01;80.89
55604;BME280;41468;48.838;9.330;2024-03-23T01:43:03;97531.31;;;11.01;80.44
55604;BME280;41468;48.838;9.330;2024-03-23T01:45:30;97517.66;;;11.09;79.33
55604;BME280;41468;48.838;9.330;2024-03-23T01:47:56;97517.28;;;11.21;78.52
55604;BME280;41468;48.838;9.330;2024-03-23T01:50:22;97519.22;;;11.24;78.01
55604;BME280;41468;48.838;9.330;2024-03-23T01:52:49;97521.19;;;11.27;78.33
55604;BME280;41468;48.838;9.330;2024-03-23T01:55:15;97507.53;;;11.27;78.28
55604;BME280;41468;48.838;9.330;2024-03-23T01:57:41;97498.53;;;11.30;78.22
55604;BME280;41468;48.838;9.330;2024-03-23T02:00:07;97489.16;;;11.38;77.96
55604;BME280;41468;48.838;9.330;2024-03-23T02:02:34;97493.06;;;11.37;78.09
55604;BME280;41468;48.838;9.330;2024-03-23T02:05:00;97489.16;;;11.42;77.89
55604;BME280;41468;48.838;9.330;2024-03-23T02:07:25;97480.56;;;11.50;78.01
55604;BME280;41468;48.838;9.330;2024-03-23T02:09:51;97469.25;;;11.45;77.08
55604;BME280;41468;48.838;9.330;2024-03-23T02:12:18;97477.03;;;11.54;77.13
55604;BME280;41468;48.838;9.330;2024-03-23T02:14:43;97477.81;;;11.54;77.66
55604;BME280;41468;48.838;9.330;2024-03-23T02:17:09;97467.28;;;11.38;78.43
55604;BME280;41468;48.838;9.330;2024-03-23T02:33:22;97454.41;;;11.35;80.84
55604;BME280;41468;48.838;9.330;2024-03-23T02:35:56;97444.22;;;11.46;80.97
55604;BME280;41468;48.838;9.330;2024-03-23T02:38:27;97452.03;;;11.52;80.84
55604;BME280;41468;48.838;9.330;2024-03-23T02:41:05;97451.63;;;11.57;81.30
55604;BME280;41468;48.838;9.330;2024-03-23T02:43:37;97444.19;;;11.64;80.71
55604;BME280;41468;48.838;9.330;2024-03-23T02:46:08;97439.09;;;11.70;80.85
55604;BME280;41468;48.838;9.330;2024-03-23T02:48:40;97448.84;;;11.78;79.93
55604;BME280;41468;48.838;9.330;2024-03-23T02:51:12;97447.66;;;11.86;79.16
55604;BME280;41468;48.838;9.330;2024-03-23T02:53:43;97435.53;;;11.91;79.64
55604;BME280;41468;48.838;9.330;2024-03-23T02:56:15;97425.34;;;11.99;78.62
55604;BME280;41468;48.838;9.330;2024-03-23T02:58:48;97425.31;;;12.02;78.62
55604;BME280;41468;48.838;9.330;2024-03-23T03:01:19;97437.38;;;12.15;77.63
55604;BME280;41468;48.838;9.330;2024-03-23T03:03:51;97421.72;;;12.16;78.08
55604;BME280;41468;48.838;9.330;2024-03-23T03:06:26;97432.28;;;12.14;78.58
55604;BME280;41468;48.838;9.330;2024-03-23T03:09:08;97423.28;;;12.17;78.90
55604;BME280;41468;48.838;9.330;2024-03-23T03:11:34;97420.56;;;12.17;78.60
55604;BME280;41468;48.838;9.330;2024-03-23T03:13:59;97417.03;;;12.20;78.69
55604;BME280;41468;48.838;9.330;2024-03-23T03:16:26;97409.19;;;12.19;79.06
55604;BME280;41468;48.838;9.330;2024-03-23T03:18:52;97411.44;;;12.34;78.23
55604;BME280;41468;48.838;9.330;2024-03-23T03:21:18;97406.00;;;12.31;78.59
55604;BME280;41468;48.838;9.330;2024-03-23T03:23:44;97400.53;;;12.31;78.48
55604;BME280;41468;48.838;9.330;2024-03-23T03:26:10;97401.72;;;12.26;79.14
55604;BME280;41468;48.838;9.330;2024-03-23T03:28:35;97403.66;;;12.29;78.79
55604;BME280;41468;48.838;9.330;2024-03-23T03:31:01;97406.78;;;12.31;78.68
55604;BME280;41468;48.838;9.330;2024-03-23T03:33:27;97398.53;;;12.35;78.51
55604;BME280;41468;48.838;9.330;2024-03-23T03:35:53;97401.28;;;12.35;78.59
55604;BME280;41468;48.838;9.330;2024-03-23T03:38:19;97392.31;;;12.27;79.40
55604;BME280;41468;48.838;9.330;2024-03-23T03:40:45;97386.84;;;12.31;78.91
55604;BME280;41468;48.838;9.330;2024-03-23T03:43:11;97389.22;;;12.25;79.30
55604;BME280;41468;48.838;9.330;2024-03-23T03:45:36;97379.84;;;12.26;79.60
55604;BME280;41468;48.838;9.330;2024-03-23T03:48:02;97385.31;;;12.26;79.31
55604;BME280;41468;48.838;9.330;2024-03-23T03:50:28;97391.16;;;12.28;79.75
55604;BME280;41468;48.838;9.330;2024-03-23T03:52:53;97382.19;;;12.28;79.73
55604;BME280;41468;48.838;9.330;2024-03-23T03:55:19;97370.50;;;12.20;80.59
55604;BME280;41468;48.838;9.330;2024-03-23T03:57:45;97374.41;;;12.19;80.91
55604;BME280;41468;48.838;9.330;2024-03-23T04:00:10;97362.25;;;12.24;80.79
55604;BME280;41468;48.838;9.330;2024-03-23T04:02:37;97353.19;;;12.30;80.71
55604;BME280;41468;48.838;9.330;2024-03-23T04:05:03;97334.41;;;12.36;80.27
55604;BME280;41468;48.838;9.330;2024-03-23T04:07:29;97325.44;;;12.32;80.52
55604;BME280;41468;48.838;9.330;2024-03-23T04:09:54;97318.69;;;12.44;80.12
55604;BME280;41468;48.838;9.330;2024-03-23T04:12:20;97328.13;;;12.39;80.44
55604;BME280;41468;48.838;9.330;2024-03-23T04:14:45;97322.63;;;12.43;80.47
55604;BME280;41468;48.838;9.330;2024-03-23T04:38:46;97342.94;;;12.45;82.52
55604;BME280;41468;48.838;9.330;2024-03-23T04:41:18;97380.91;;;12.40;97.45
55604;BME280;41468;48.838;9.330;2024-03-23T04:43:49;97395.66;;;11.90;100.00
55604;BME280;41468;48.838;9.330;2024-03-23T04:46:21;97404.44;;;11.38;100.00
55604;BME280;41468;48.838;9.330;2024-03-23T04:48:52;97404.06;;;11.22;100.00
55604;BME280;41468;48.838;9.330;2024-03-23T04:51:24;97376.78;;;11.04;100.00
55604;BME280;41468;48.838;9.330;2024-03-23T04:53:56;97372.16;;;10.76;100.00
55604;BME280;41468;48.838;9.330;2024-03-23T04:56:27;97372.53;;;10.60;100.00
55604;BME280;41468;48.838;9.330;2024-03-23T04:58:59;97379.19;;;10.70;100.00
55604;BME280;41468;48.838;9.330;2024-03-23T05:01:33;97389.72;;;10.64;100.00
55604;BME280;41468;48.838;9.330;2024-03-23T05:04:06;97390.88;;;10.52;100.00
55604;BME280;41468;48.838;9.330;2024-03-23T05:06:32;97387.34;;;10.41;100.00
55604;BME280;41468;48.838;9.330;2024-03-23T05:08:58;97393.59;;;10.52;100.00
55604;BME280;41468;48.838;9.330;2024-03-23T05:11:23;97390.47;;;10.50;100.00
55604;BME280;41468;48.838;9.330;2024-03-23T05:13:57;97394.75;;;10.58;100.00
55604;BME280;41468;48.838;9.330;2024-03-23T05:16:22;97393.63;;;10.56;100.00
55604;BME280;41468;48.838;9.330;2024-03-23T05:18:48;97383.44;;;10.42;100.00
55604;BME280;41468;48.838;9.330;2024-03-23T05:21:13;97394.38;;;10.46;100.00
55604;BME280;41468;48.838;9.330;2024-03-23T05:23:39;97395.53;;;10.41;100.00
55604;BME280;41468;48.838;9.330;2024-03-23T05:26:04;97407.63;;;10.40;100.00
55604;BME280;41468;48.838;9.330;2024-03-23T05:28:30;97416.19;;;10.31;100.00
55604;BME280;41468;48.838;9.330;2024-03-23T05:30:56;97409.94;;;10.27;100.00
55604;BME280;41468;48.838;9.330;2024-03-23T05:33:24;97410.72;;;10.31;100.00
55604;BME280;41468;48.838;9.330;2024-03-23T05:35:57;97421.25;;;10.36;100.00
55604;BME280;41468;48.838;9.330;2024-03-23T05:38:23;97408.41;;;10.33;100.00
55604;BME280;41468;48.838;9.330;2024-03-23T05:40:59;97418.47;;;10.08;100.00
55604;BME280;41468;48.838;9.330;2024-03-23T05:43:25;97428.59;;;10.11;100.00
55604;BME280;41468;48.838;9.330;2024-03-23T05:45:58;97434.81;;;10.15;100.00
55604;BME280;41468;48.838;9.330;2024-03-23T05:48:26;97444.16;;;10.03;100.00
55604;BME280;41468;48.838;9.330;2024-03-23T05:50:52;97455.44;;;9.98;100.00
55604;BME280;41468;48.838;9.330;2024-03-23T05:53:18;97454.66;;;9.98;100.00
55604;BME280;41468;48.838;9.330;2024-03-23T05:55:48;97472.97;;;10.04;100.00
55604;BME280;41468;48.838;9.330;2024-03-23T05:58:20;97484.25;;;9.99;100.00
55604;BME280;41468;48.838;9.330;2024-03-23T06:00:46;97487.66;;;9.74;100.00
55604;BME280;41468;48.838;9.330;2024-03-23T06:03:18;97483.69;;;9.61;100.00
55604;BME280;41468;48.838;9.330;2024-03-23T06:05:43;97476.63;;;9.49;100.00
55604;BME280;41468;48.838;9.330;2024-03-23T06:08:09;97470.75;;;9.47;100.00
55604;BME280;41468;48.838;9.330;2024-03-23T06:10:35;97465.00;;;9.63;100.00
55604;BME280;41468;48.838;9.330;2024-03-23T06:13:00;97474.31;;;9.55;100.00
55604;BME280;41468;48.838;9.330;2024-03-23T06:15:26;97491.84;;;9.61;100.00
55604;BME280;41468;48.838;9.330;2024-03-23T06:17:52;97481.78;;;9.65;100.00
55604;BME280;41468;48.838;9.330;2024-03-23T06:20:18;97490.31;;;9.64;100.00
55604;BME280;41468;48.838;9.330;2024-03-23T06:22:43;97508.97;;;9.55;100.00
55604;BME280;41468;48.838;9.330;2024-03-23T06:25:09;97518.63;;;9.45;100.00
55604;BME280;41468;48.838;9.330;2024-03-23T06:27:35;97502.34;;;9.52;100.00
55604;BME280;41468;48.838;9.330;2024-03-23T06:30:00;97499.66;;;9.59;100.00
55604;BME280;41468;48.838;9.330;2024-03-23T06:32:27;97500.78;;;9.55;100.00
55604;BME280;41468;48.838;9.330;2024-03-23T06:34:54;97509.47;;;9.74;100.00
55604;BME280;41468;48.838;9.330;2024-03-23T06:37:20;97527.75;;;9.70;100.00
55604;BME280;41468;48.838;9.330;2024-03-23T06:39:46;97548.31;;;9.57;100.00
55604;BME280;41468;48.838;9.330;2024-03-23T06:42:17;97552.50;;;9.44;100.00
55604;BME280;41468;48.838;9.330;2024-03-23T06:44:43;97560.72;;;9.51;100.00
55604;BME280;41468;48.838;9.330;2024-03-23T06:47:09;97576.19;;;9.40;100.00
55604;BME280;41468;48.838;9.330;2024-03-23T06:49:34;97576.31;;;9.54;100.00
55604;BME280;41468;48.838;9.330;2024-03-23T06:52:07;97571.16;;;9.45;100.00
55604;BME280;41468;48.838;9.330;2024-03-23T06:54:44;97568.06;;;9.43;100.00
55604;BME280;41468;48.838;9.330;2024-03-23T06:57:13;97567.72;;;9.48;100.00
55604;BME280;41468;48.838;9.330;2024-03-23T06:59:39;97594.91;;;9.45;100.00
55604;BME280;41468;48.838;9.330;2024-03-23T07:02:05;97592.88;;;9.35;100.00
55604;BME280;41468;48.838;9.330;2024-03-23T07:04:34;97602.97;;;9.31;100.00
55604;BME280;41468;48.838;9.330;2024-03-23T07:07:00;97602.59;;;9.32;100.00
55604;BME280;41468;48.838;9.330;2024-03-23T07:09:27;97595.22;;;9.33;100.00
55604;BME280;41468;48.838;9.330;2024-03-23T07:11:54;97615.88;;;9.37;100.00
55604;BME280;41468;48.838;9.330;2024-03-23T07:14:21;97625.22;;;9.40;100.00
55604;BME280;41468;48.838;9.330;2024-03-23T07:16:47;97620.44;;;9.26;100.00
55604;BME280;41468;48.838;9.330;2024-03-23T07:19:14;97626.00;;;9.37;100.00
55604;BME280;41468;48.838;9.330;2024-03-23T07:21:47;97625.66;;;9.42;100.00
55604;BME280;41468;48.838;9.330;2024-03-23T07:24:13;97624.09;;;9.41;100.00
55604;BME280;41468;48.838;9.330;2024-03-23T07:26:38;97629.09;;;9.35;100.00
55604;BME280;41468;48.838;9.330;2024-03-23T07:29:06;97625.31;;;9.47;100.00
55604;BME280;41468;48.838;9.330;2024-03-23T07:31:45;97627.38;;;9.64;100.00
55604;BME280;41468;48.838;9.330;2024-03-23T07:34:10;97628.47;;;9.56;100.00
55604;BME280;41468;48.838;9.330;2024-03-23T07:36:36;97635.09;;;9.55;100.00
55604;BME280;41468;48.838;9.330;2024-03-23T07:39:01;97652.91;;;9.90;100.00
55604;BME280;41468;48.838;9.330;2024-03-23T07:41:28;97629.03;;;10.38;100.00
55604;BME280;41468;48.838;9.330;2024-03-23T07:43:53;97629.09;;;10.53;100.00
55604;BME280;41468;48.838;9.330;2024-03-23T07:46:20;97641.50;;;10.32;100.00
55604;BME280;41468;48.838;9.330;2024-03-23T07:48:46;97656.53;;;10.08;100.00
55604;BME280;41468;48.838;9.330;2024-03-23T07:51:24;97668.00;;;9.80;100.00
55604;BME280;41468;48.838;9.330;2024-03-23T07:53:49;97669.44;;;9.67;100.00
55604;BME280;41468;48.838;9.330;2024-03-23T07:56:16;97681.84;;;9.57;100.00
55604;BME280;41468;48.838;9.330;2024-03-23T07:58:41;97690.06;;;9.64;100.00
55604;BME280;41468;48.838;9.330;2024-03-23T08:01:08;97689.19;;;9.53;100.00
55604;BME280;41468;48.838;9.330;2024-03-23T08:03:42;97701.69;;;9.54;100.00
55604;BME280;41468;48.838;9.330;2024-03-23T08:06:14;97703.56;;;9.50;100.00
55604;BME280;41468;48.838;9.330;2024-03-23T08:08:41;97700.31;;;9.34;100.00
55604;BME280;41468;48.838;9.330;2024-03-23T08:11:07;97690.47;;;9.22;100.00
55604;BME280;41468;48.838;9.330;2024-03-23T08:13:38;97721.50;;;9.14;100.00
55604;BME280;41468;48.838;9.330;2024-03-23T08:16:04;97726.44;;;9.04;100.00
55604;BME280;41468;48.838;9.330;2024-03-23T08:18:30;97748.41;;;8.89;100.00
55604;BME280;41468;48.838;9.330;2024-03-23T08:21:03;97756.59;;;8.89;100.00
55604;BME280;41468;48.838;9.330;2024-03-23T08:23:30;97756.84;;;8.76;100.00
55604;BME280;41468;48.838;9.330;2024-03-23T08:26:05;97743.16;;;9.03;100.00
55604;BME280;41468;48.838;9.330;2024-03-23T08:28:31;97748.03;;;8.87;100.00
55604;BME280;41468;48.838;9.330;2024-03-23T08:31:01;97767.09;;;8.87;100.00
55604;BME280;41468;48.838;9.330;2024-03-23T08:33:27;97791.25;;;8.92;100.00
55604;BME280;41468;48.838;9.330;2024-03-23T08:36:19;97807.56;;;8.92;100.00
55604;BME280;41468;48.838;9.330;2024-03-23T08:38:45;97817.53;;;8.80;100.00
55604;BME280;41468;48.838;9.330;2024-03-23T08:41:11;97837.94;;;8.67;100.00
55604;BME280;41468;48.838;9.330;2024-03-23T08:43:40;97850.81;;;8.70;100.00
55604;BME280;41468;48.838;9.330;2024-03-23T08:46:13;97852.50;;;8.78;100.00
55604;BME280;41468;48.838;9.330;2024-03-23T08:48:46;97853.22;;;9.02;100.00
55604;BME280;41468;48.838;9.330;2024-03-23T08:51:13;97847.31;;;9.26;100.00
55604;BME280;41468;48.838;9.330;2024-03-23T08:53:39;97835.50;;;9.15;100.00
55604;BME280;41468;48.838;9.330;2024-03-23T08:56:06;97831.44;;;9.32;100.00
55604;BME280;41468;48.838;9.330;2024-03-23T08:58:33;97818.53;;;9.59;100.00
55604;BME280;41468;48.838;9.330;2024-03-23T09:01:04;97819.13;;;9.45;100.00
55604;BME280;41468;48.838;9.330;2024-03-23T09:03:30;97843.41;;;9.24;100.00
55604;BME280;41468;48.838;9.330;2024-03-23T09:05:56;97859.09;;;9.04;100.00
55604;BME280;41468;48.838;9.330;2024-03-23T09:08:23;97873.66;;;8.89;100.00
55604;BME280;41468;48.838;9.330;2024-03-23T09:10:49;97877.59;;;8.91;100.00
55604;BME280;41468;48.838;9.330;2024-03-23T09:13:14;97879.72;;;9.05;100.00
55604;BME280;41468;48.838;9.330;2024-03-23T09:15:51;97885.31;;;8.89;100.00
55604;BME280;41468;48.838;9.330;2024-03-23T09:18:17;97894.16;;;9.05;100.00
55604;BME280;41468;48.838;9.330;2024-03-23T09:20:43;97916.75;;;8.83;100.00
55604;BME280;41468;48.838;9.330;2024-03-23T09:23:09;97924.13;;;8.82;100.00
55604;BME280;41468;48.838;9.330;2024-03-23T09:25:38;97915.31;;;8.66;100.00
55604;BME280;41468;48.838;9.330;2024-03-23T09:28:05;97920.09;;;9.26;100.00
55604;BME280;41468;48.838;9.330;2024-03-23T09:30:32;97925.84;;;10.15;100.00
55604;BME280;41468;48.838;9.330;2024-03-23T09:32:58;97927.25;;;10.80;84.41
55604;BME280;41468;48.838;9.330;2024-03-23T09:35:24;97927.19;;;11.28;76.30
55604;BME280;41468;48.838;9.330;2024-03-23T09:37:49;97942.41;;;11.22;77.34
55604;BME280;41468;48.838;9.330;2024-03-23T09:40:15;97916.53;;;10.57;76.84
55604;BME280;41468;48.838;9.330;2024-03-23T09:42:41;97920.50;;;10.26;74.07
55604;BME280;41468;48.838;9.330;2024-03-23T09:45:17;97927.31;;;9.71;82.62
55604;BME280;41468;48.838;9.330;2024-03-23T09:47:45;97931.34;;;9.81;80.59
55604;BME280;41468;48.838;9.330;2024-03-23T09:50:13;97925.97;;;9.58;79.73
55604;BME280;41468;48.838;9.330;2024-03-23T09:52:47;97919.56;;;9.43;84.95
55604;BME280;41468;48.838;9.330;2024-03-23T09:55:25;97907.47;;;9.41;80.91
55604;BME280;41468;48.838;9.330;2024-03-23T09:57:50;97914.31;;;9.61;84.06
55604;BME280;41468;48.838;9.330;2024-03-23T10:00:16;97909.03;;;9.42;81.36
55604;BME280;41468;48.838;9.330;2024-03-23T10:02:42;97914.16;;;9.47;83.19
55604;BME280;41468;48.838;9.330;2024-03-23T10:05:23;97913.44;;;9.54;82.69
55604;BME280;41468;48.838;9.330;2024-03-23T10:07:52;97917.47;;;9.33;82.78
55604;BME280;41468;48.838;9.330;2024-03-23T10:10:18;97914.97;;;9.21;82.92
55604;BME280;41468;48.838;9.330;2024-03-23T10:12:45;97897.28;;;9.07;80.08
55604;BME280;41468;48.838;9.330;2024-03-23T10:15:24;97901.00;;;9.22;83.26
55604;BME280;41468;48.838;9.330;2024-03-23T10:17:50;97907.03;;;9.39;84.31
55604;BME280;41468;48.838;9.330;2024-03-23T10:20:22;97893.09;;;9.44;83.09
55604;BME280;41468;48.838;9.330;2024-03-23T10:22:51;97892.50;;;9.58;82.55
55604;BME280;41468;48.838;9.330;2024-03-23T10:25:17;97889.56;;;9.73;81.21
55604;BME280;41468;48.838;9.330;2024-03-23T10:28:00;97877.13;;;10.13;78.17
55604;BME280;41468;48.838;9.330;2024-03-23T10:30:27;97880.31;;;10.23;72.47
55604;BME280;41468;48.838;9.330;2024-03-23T10:35:34;97882.84;;;10.01;68.39
55604;BME280;41468;48.838;9.330;2024-03-23T10:38:03;97886.34;;;10.02;73.72
55604;BME280;41468;48.838;9.330;2024-03-23T10:40:29;97886.19;;;9.84;73.10
55604;BME280;41468;48.838;9.330;2024-03-23T10:42:57;97891.91;;;9.75;77.46
55604;BME280;41468;48.838;9.330;2024-03-23T10:45:30;97897.63;;;9.63;74.74
55604;BME280;41468;48.838;9.330;2024-03-23T10:47:55;97886.25;;;9.57;74.93
55604;BME280;41468;48.838;9.330;2024-03-23T10:50:22;97886.41;;;9.71;74.67
55604;BME280;41468;48.838;9.330;2024-03-23T10:52:48;97880.13;;;9.34;72.93
55604;BME280;41468;48.838;9.330;2024-03-23T10:55:17;97883.94;;;9.29;74.79
55604;BME280;41468;48.838;9.330;2024-03-23T10:57:48;97891.56;;;9.16;76.46
55604;BME280;41468;48.838;9.330;2024-03-23T11:00:15;97913.84;;;8.95;81.55
55604;BME280;41468;48.838;9.330;2024-03-23T11:02:41;97975.44;;;8.57;93.38
55604;BME280;41468;48.838;9.330;2024-03-23T11:07:52;97989.50;;;6.95;100.00
55604;BME280;41468;48.838;9.330;2024-03-23T11:10:36;98001.16;;;6.64;100.00
55604;BME280;41468;48.838;9.330;2024-03-23T11:13:23;98007.19;;;6.57;100.00
55604;BME280;41468;48.838;9.330;2024-03-23T11:15:49;98009.91;;;6.57;100.00
55604;BME280;41468;48.838;9.330;2024-03-23T11:18:20;98002.88;;;6.40;100.00
55604;BME280;41468;48.838;9.330;2024-03-23T11:20:46;98003.50;;;6.66;100.00
55604;BME280;41468;48.838;9.330;2024-03-23T11:23:27;97981.28;;;6.76;100.00
55604;BME280;41468;48.838;9.330;2024-03-23T11:25:52;97962.41;;;7.30;100.00
55604;BME280;41468;48.838;9.330;2024-03-23T11:28:18;97943.84;;;8.10;100.00
55604;BME280;41468;48.838;9.330;2024-03-23T11:30:43;97953.09;;;8.48;100.00
55604;BME280;41468;48.838;9.330;2024-03-23T11:33:09;97946.38;;;8.88;100.00
55604;BME280;41468;48.838;9.330;2024-03-23T11:35:39;97952.75;;;9.22;100.00
55604;BME280;41468;48.838;9.330;2024-03-23T11:38:15;97951.13;;;9.18;100.00
55604;BME280;41468;48.838;9.330;2024-03-23T11:40:50;97961.88;;;9.94;100.00
55604;BME280;41468;48.838;9.330;2024-03-23T11:43:17;97964.34;;;10.40;100.00
55604;BME280;41468;48.838;9.330;2024-03-23T11:45:47;97957.59;;;10.68;100.00
55604;BME280;41468;48.838;9.330;2024-03-23T11:48:14;97962.72;;;10.32;100.00
55604;BME280;41468;48.838;9.330;2024-03-23T11:50:42;97958.81;;;10.33;100.00
55604;BME280;41468;48.838;9.330;2024-03-23T11:58:05;97951.59;;;10.17;100.00
55604;BME280;41468;48.838;9.330;2024-03-23T12:00:31;97943.56;;;10.28;100.00
55604;BME280;41468;48.838;9.330;2024-03-23T12:03:04;97943.59;;;9.98;100.00
55604;BME280;41468;48.838;9.330;2024-03-23T12:05:31;97934.41;;;9.80;100.00
55604;BME280;41468;48.838;9.330;2024-03-23T12:08:15;97935.63;;;9.82;99.76
55604;BME280;41468;48.838;9.330;2024-03-23T12:10:44;97931.72;;;9.49;100.00
55604;BME280;41468;48.838;9.330;2024-03-23T12:13:09;97933.78;;;9.29;97.63
55604;BME280;41468;48.838;9.330;2024-03-23T12:15:36;97924.56;;;9.11;94.42
55604;BME280;41468;48.838;9.330;2024-03-23T12:18:10;97930.75;;;9.08;100.00
55604;BME280;41468;48.838;9.330;2024-03-23T12:20:37;97936.03;;;8.97;100.00
55604;BME280;41468;48.838;9.330;2024-03-23T12:23:11;97942.19;;;8.94;100.00
55604;BME280;41468;48.838;9.330;2024-03-23T12:25:38;97939.94;;;9.00;98.79
55604;BME280;41468;48.838;9.330;2024-03-23T12:28:05;97936.84;;;8.75;94.88
55604;BME280;41468;48.838;9.330;2024-03-23T12:30:35;97932.28;;;8.82;97.67
55604;BME280;41468;48.838;9.330;2024-03-23T12:33:01;97937.75;;;8.59;90.26
55604;BME280;41468;48.838;9.330;2024-03-23T12:35:28;97929.16;;;8.80;90.79
55604;BME280;41468;48.838;9.330;2024-03-23T12:37:54;97929.94;;;8.81;90.62
55604;BME280;41468;48.838;9.330;2024-03-23T12:40:19;97922.78;;;8.96;93.66
55604;BME280;41468;48.838;9.330;2024-03-23T12:42:45;97913.94;;;8.76;87.39
55604;BME280;41468;48.838;9.330;2024-03-23T12:45:10;97917.66;;;8.91;92.98
55604;BME280;41468;48.838;9.330;2024-03-23T12:47:42;97913.59;;;9.07;90.20
55604;BME280;41468;48.838;9.330;2024-03-23T12:50:07;97916.41;;;9.11;86.67
55604;BME280;41468;48.838;9.330;2024-03-23T12:52:33;97917.97;;;9.12;80.01
55604;BME280;41468;48.838;9.330;2024-03-23T12:54:59;97919.88;;;9.08;77.98
55604;BME280;41468;48.838;9.330;2024-03-23T12:57:25;97907.84;;;8.86;83.50
55604;BME280;41468;48.838;9.330;2024-03-23T12:59:51;97926.56;;;8.88;85.43
55604;BME280;41468;48.838;9.330;2024-03-23T13:02:19;97915.34;;;8.93;82.24
55604;BME280;41468;48.838;9.330;2024-03-23T13:04:46;97909.75;;;9.09;86.30
55604;BME280;41468;48.838;9.330;2024-03-23T13:07:18;97906.13;;;9.27;79.32
55604;BME280;41468;48.838;9.330;2024-03-23T13:09:50;97910.19;;;9.41;78.22
55604;BME280;41468;48.838;9.330;2024-03-23T13:12:17;97897.31;;;9.71;79.61
55604;BME280;41468;48.838;9.330;2024-03-23T13:14:44;97891.53;;;10.10;77.23
55604;BME280;41468;48.838;9.330;2024-03-23T13:17:10;97888.31;;;10.42;73.79
55604;BME280;41468;48.838;9.330;2024-03-23T13:19:36;97876.59;;;10.86;74.54
55604;BME280;41468;48.838;9.330;2024-03-23T13:22:01;97884.28;;;11.32;72.74
55604;BME280;41468;48.838;9.330;2024-03-23T13:24:28;97878.72;;;11.14;63.20
55604;BME280;41468;48.838;9.330;2024-03-23T13:27:05;97872.53;;;11.28;60.89
55604;BME280;41468;48.838;9.330;2024-03-23T13:29:33;97870.16;;;11.23;61.73
55604;BME280;41468;48.838;9.330;2024-03-23T13:31:59;97870.88;;;11.05;66.03
55604;BME280;41468;48.838;9.330;2024-03-23T13:34:25;97868.75;;;10.81;66.94
55604;BME280;41468;48.838;9.330;2024-03-23T13:36:50;97866.44;;;10.87;59.36
55604;BME280;41468;48.838;9.330;2024-03-23T13:39:22;97862.50;;;10.80;58.41
55604;BME280;41468;48.838;9.330;2024-03-23T13:41:48;97840.81;;;11.05;61.43
55604;BME280;41468;48.838;9.330;2024-03-23T13:44:13;97844.84;;;11.30;59.21
55604;BME280;41468;48.838;9.330;2024-03-23T13:46:40;97836.72;;;11.51;59.94
55604;BME280;41468;48.838;9.330;2024-03-23T13:49:23;97837.06;;;11.35;55.13
55604;BME280;41468;48.838;9.330;2024-03-23T13:51:49;97830.13;;;11.63;55.97
55604;BME280;41468;48.838;9.330;2024-03-23T13:54:15;97832.56;;;11.86;54.17
55604;BME280;41468;48.838;9.330;2024-03-23T13:56:41;97834.50;;;11.92;52.35
55604;BME280;41468;48.838;9.330;2024-03-23T13:59:06;97834.16;;;11.90;51.01
55604;BME280;41468;48.838;9.330;2024-03-23T14:01:32;97831.59;;;11.39;52.51
55604;BME280;41468;48.838;9.330;2024-03-23T14:03:57;97857.72;;;11.29;52.17
55604;BME280;41468;48.838;9.330;2024-03-23T14:06:23;97910.25;;;10.53;58.23
55604;BME280;41468;48.838;9.330;2024-03-23T14:08:49;97898.91;;;9.12;69.85
55604;BME280;41468;48.838;9.330;2024-03-23T14:11:15;97907.47;;;8.18;83.67
55604;BME280;41468;48.838;9.330;2024-03-23T14:13:47;97911.16;;;8.07;96.51
55604;BME280;41468;48.838;9.330;2024-03-23T14:16:12;97934.19;;;7.55;100.00
55604;BME280;41468;48.838;9.330;2024-03-23T14:18:38;97931.44;;;7.16;100.00
55604;BME280;41468;48.838;9.330;2024-03-23T14:21:03;97947.72;;;7.16;100.00
55604;BME280;41468;48.838;9.330;2024-03-23T14:23:30;97961.94;;;6.46;100.00
55604;BME280;41468;48.838;9.330;2024-03-23T14:25:59;97948.81;;;6.32;100.00
55604;BME280;41468;48.838;9.330;2024-03-23T14:28:25;97956.50;;;6.30;100.00
55604;BME280;41468;48.838;9.330;2024-03-23T14:30:52;97951.94;;;6.18;100.00
55604;BME280;41468;48.838;9.330;2024-03-23T14:33:20;97950.19;;;6.26;100.00
55604;BME280;41468;48.838;9.330;2024-03-23T14:35:55;97921.19;;;5.70;100.00
55604;BME280;41468;48.838;9.330;2024-03-23T14:38:23;97915.53;;;5.91;100.00
55604;BME280;41468;48.838;9.330;2024-03-23T14:40:58;97886.09;;;5.89;100.00
55604;BME280;41468;48.838;9.330;2024-03-23T14:43:24;97876.72;;;6.62;100.00
55604;BME280;41468;48.838;9.330;2024-03-23T14:48:34;97875.31;;;7.59;100.00
55604;BME280;41468;48.838;9.330;2024-03-23T14:51:00;97875.31;;;7.59;100.00
55604;BME280;41468;48.838;9.330;2024-03-23T14:53:27;97879.84;;;7.93;100.00
55604;BME280;41468;48.838;9.330;2024-03-23T14:56:00;97883.78;;;8.19;100.00
55604;BME280;41468;48.838;9.330;2024-03-23T14:58:26;97871.91;;;8.50;100.00